Airfield :
LOGIN :

Register | Disclaimer

   EN    FR    IT 

 










Legend :    VFR   Marginal VFR   IFR   Intensive IFR   Very Intensive IFR
Visi :
Ceiling :
>= 8 km
>= 3000ft
5 to 8 km
1000 to 3000 ft
1500m to 5 km
500 to 1000 ft
800 to 1500m
200 to 500 ft
< 800m
< 200 ft
Symbols :   Thunderstorms  Fog  Heavy snow  Heavy precipitations  Wind > 20 kt
SIGMETs :     Misc.  Thunderstorms  Icing  Turbulence  Mountain Waves  Volcanic Ashes






- Airport Elevation : 59 ft
- IATA code : TSF


LIPH - Treviso

CURRENT METAR :
  • 030150Z AUTO VRB01KT 9999 NCD 04/01 Q1033

EXPIRED METARs :
  • 030120Z AUTO 03002KT 9999 NCD 04/01 Q1033
  • 030050Z AUTO 35003KT 9999 NCD 04/01 Q1033
  • 030020Z AUTO 02003KT 9999 NCD 03/01 Q1033
  • 022350Z AUTO 35003KT 9999 NCD 04/02 Q1033
  • 022320Z AUTO 24001KT 8000 NCD 04/03 Q1033

TAF TAF LIPH
Valid from the 03 at 00:00 until the 04 at 00:00 UTC


022300Z 0300/0324 VRB04KT CAVOK
TEMPO 0300/0308 3000 BR
BECMG 0320/0322 3000 BR



MET'MAP, your aeronautical weather chart ! - Copyright ORBIFLY December 2007 - Disclaimer

ORBIFLY MET'MAP TEAM :

Programming & Development : Alexandra Zaïnal
Concept & original design : Baudouin d'Aumeries
Assistance for programming : Marc-Olivier Méhu
Technical & hardware support : Manuel Goepfert

Contact : metmap@orbifly.com




SOURCES & CREDITS :

   NOAA